Lamine, Missouri
Current Conditions -  °F | °C
As of 10:35 PM on Wednesday 22 Oct 2014 (Local Time) from KVER Reporting Station
Haze Haze  
Wind Chill: 52°   Ceiling: Unl
Heat Index: 52°   Visibility: 2.5mi
Dew Point: 43°   Wind: 9mph
Humidity: 71%   Direction: 130°SE
Pressure: 30.17"   Gusts: NA
Location:  38.8814°N, 92.7602°W
Report Text: KVER 230335Z AUTO 13008KT 2 1/2SM HZ CLR 11/06 A3017 RMK AO2 T01110061
Loading
Personal Weather Stations






























Interactive Weather Map
Tropical Storm Tracking
New forecast layout! Learn more

10-Day Weather Forecast

Advertisements
Track Severe Weather on mobile